createdAt,value
2019-03-24T00:00:57.558Z,39.33
2019-03-24T00:03:27.598Z,39.33
2019-03-24T00:05:57.497Z,40.53
2019-03-24T00:08:27.562Z,51.77
2019-03-24T00:10:57.410Z,42.20
2019-03-24T00:13:27.286Z,43.20
2019-03-24T00:15:57.139Z,41.60
2019-03-24T00:18:27.046Z,45.80
2019-03-24T00:20:56.899Z,43.97
2019-03-24T00:23:26.754Z,46.73
2019-03-24T00:25:57.038Z,48.00
2019-03-24T00:28:26.896Z,47.27
2019-03-24T00:30:57.758Z,46.00
2019-03-24T00:33:27.538Z,48.60
2019-03-24T00:35:57.409Z,50.53
2019-03-24T00:38:27.309Z,49.40
2019-03-24T00:40:57.147Z,49.77
2019-03-24T00:43:26.992Z,50.17
2019-03-24T00:45:57.629Z,53.07
2019-03-24T00:48:27.686Z,48.53
2019-03-24T00:50:57.572Z,48.10
2019-03-24T00:53:27.426Z,49.57
2019-03-24T00:55:57.202Z,48.37
2019-03-24T00:58:26.947Z,48.80
2019-03-24T01:00:56.807Z,49.87
2019-03-24T01:03:26.621Z,47.87
2019-03-24T01:05:56.397Z,47.47
2019-03-24T01:08:26.123Z,46.53
2019-03-24T01:10:56.011Z,47.47
2019-03-24T01:13:25.785Z,46.43
2019-03-24T01:15:55.489Z,47.77
2019-03-24T01:18:25.380Z,46.37
2019-03-24T01:20:56.369Z,50.63
2019-03-24T01:23:26.150Z,44.20
2019-03-24T01:25:55.934Z,44.23
2019-03-24T01:28:25.796Z,42.90
2019-03-24T01:30:55.562Z,43.03
2019-03-24T01:33:25.367Z,43.40
2019-03-24T01:35:55.148Z,41.40
2019-03-24T01:38:25.095Z,41.93
2019-03-24T01:40:54.891Z,42.50
2019-03-24T01:43:24.710Z,41.87
2019-03-24T01:45:58.850Z,40.77
2019-03-24T01:48:25.898Z,45.20
2019-03-24T01:50:55.634Z,40.40
2019-03-24T01:53:25.496Z,40.30
2019-03-24T01:55:55.274Z,41.37
2019-03-24T01:58:25.047Z,38.93
2019-03-24T02:00:54.909Z,40.70
2019-03-24T02:03:24.757Z,40.70
2019-03-24T02:05:54.614Z,37.93
2019-03-24T02:08:24.487Z,37.77
2019-03-24T02:10:54.364Z,36.07
2019-03-24T02:13:24.167Z,36.67
2019-03-24T02:15:54.035Z,36.50
2019-03-24T02:18:23.887Z,35.90
2019-03-24T02:20:53.735Z,35.90
2019-03-24T02:23:23.618Z,35.40
2019-03-24T02:25:53.394Z,35.00
2019-03-24T02:28:23.256Z,34.87
2019-03-24T02:30:53.030Z,33.30
2019-03-24T02:33:22.795Z,32.63
2019-03-24T02:35:52.658Z,31.60
2019-03-24T02:38:22.530Z,33.17
2019-03-24T02:40:52.321Z,31.60
2019-03-24T02:43:22.098Z,27.10
2019-03-24T02:45:51.857Z,26.33
2019-03-24T02:48:21.679Z,24.17
2019-03-24T02:50:51.487Z,23.40
2019-03-24T02:53:21.258Z,21.23
2019-03-24T02:55:51.167Z,19.80
2019-03-24T02:58:20.941Z,20.27
2019-03-24T03:00:50.787Z,19.67
2019-03-24T03:03:20.613Z,18.43
2019-03-24T03:05:50.396Z,17.10
2019-03-24T03:08:20.235Z,16.63
2019-03-24T03:10:50.455Z,16.53
2019-03-24T03:13:20.895Z,17.17
2019-03-24T03:15:50.662Z,17.43
2019-03-24T03:18:20.544Z,17.93
2019-03-24T03:20:50.310Z,17.90
2019-03-24T03:23:20.112Z,17.37
2019-03-24T03:25:50.035Z,17.33
2019-03-24T03:28:19.834Z,19.80
2019-03-24T03:30:49.684Z,19.93
2019-03-24T03:33:19.637Z,18.77
2019-03-24T03:35:49.390Z,19.00
2019-03-24T03:38:19.250Z,19.60
2019-03-24T03:40:49.061Z,19.83
2019-03-24T03:43:18.908Z,18.43
2019-03-24T03:45:49.096Z,19.27
2019-03-24T03:48:18.956Z,19.77
2019-03-24T03:50:48.808Z,19.67
2019-03-24T03:53:18.759Z,18.43
2019-03-24T03:55:48.618Z,19.30
2019-03-24T03:58:18.903Z,19.10
2019-03-24T04:00:48.799Z,19.70
2019-03-24T04:03:18.659Z,19.80
2019-03-24T04:05:48.422Z,20.20
2019-03-24T04:08:18.319Z,19.77
2019-03-24T04:10:48.152Z,19.90
2019-03-24T04:13:17.925Z,19.53
2019-03-24T04:15:47.919Z,20.07
2019-03-24T04:18:17.771Z,20.77
2019-03-24T04:20:47.753Z,20.13
2019-03-24T04:23:17.682Z,20.73
2019-03-24T04:25:47.434Z,21.30
2019-03-24T04:28:17.301Z,22.20
2019-03-24T04:30:47.101Z,20.87
2019-03-24T04:33:16.858Z,21.43
2019-03-24T04:35:46.983Z,20.77
2019-03-24T04:38:16.823Z,20.10
2019-03-24T04:40:47.082Z,20.37
2019-03-24T04:43:16.930Z,22.00
2019-03-24T04:45:46.776Z,21.97
2019-03-24T04:48:16.526Z,24.47
2019-03-24T04:50:46.370Z,23.43
2019-03-24T04:53:16.137Z,23.23
2019-03-24T04:55:46.042Z,20.80
2019-03-24T04:58:15.901Z,19.73
2019-03-24T05:00:45.765Z,19.23
2019-03-24T05:03:15.674Z,17.87
2019-03-24T05:05:46.221Z,17.13
2019-03-24T05:08:16.060Z,16.50
2019-03-24T05:10:45.837Z,16.27
2019-03-24T05:13:15.653Z,15.87
2019-03-24T05:15:45.425Z,16.57
2019-03-24T05:18:15.301Z,15.70
2019-03-24T05:20:45.136Z,16.20
2019-03-24T05:23:14.911Z,14.93
2019-03-24T05:25:44.694Z,15.17
2019-03-24T05:28:14.573Z,15.33
2019-03-24T05:30:44.415Z,15.60
2019-03-24T05:33:14.261Z,16.10
2019-03-24T05:35:44.186Z,16.07
2019-03-24T05:38:14.025Z,16.63
2019-03-24T05:40:43.810Z,16.73
2019-03-24T05:43:13.693Z,16.77
2019-03-24T05:45:43.533Z,15.67
2019-03-24T05:48:13.423Z,16.23
2019-03-24T05:50:43.192Z,18.23
2019-03-24T05:53:13.076Z,16.73
2019-03-24T05:55:42.928Z,16.93
2019-03-24T05:58:12.806Z,16.80
2019-03-24T06:00:42.670Z,17.33
2019-03-24T06:03:12.892Z,17.90
2019-03-24T06:05:42.745Z,18.30
2019-03-24T06:08:12.535Z,18.17
2019-03-24T06:10:42.420Z,17.60
2019-03-24T06:13:12.198Z,17.37
2019-03-24T06:15:41.983Z,17.23
2019-03-24T06:18:11.829Z,25.73
2019-03-24T06:20:41.618Z,16.57
2019-03-24T06:23:11.409Z,17.83
2019-03-24T06:25:41.576Z,45.97
2019-03-24T06:28:11.420Z,18.00
2019-03-24T06:30:41.240Z,18.77
2019-03-24T06:33:11.014Z,32.07
2019-03-24T06:35:40.783Z,15.63
2019-03-24T06:38:10.683Z,16.67
2019-03-24T06:40:40.534Z,15.53
2019-03-24T06:43:10.303Z,15.63
2019-03-24T06:45:40.107Z,17.80
2019-03-24T06:48:10.014Z,13.70
2019-03-24T06:50:41.753Z,14.93
2019-03-24T06:53:11.573Z,15.20
2019-03-24T06:55:41.442Z,15.70
2019-03-24T06:58:11.221Z,14.60
2019-03-24T07:00:41.075Z,13.60
2019-03-24T07:03:10.995Z,13.93
2019-03-24T07:05:40.853Z,14.27
2019-03-24T07:08:10.733Z,12.00
2019-03-24T07:10:40.715Z,11.47
2019-03-24T07:13:10.609Z,12.83
2019-03-24T07:15:40.667Z,13.20
2019-03-24T07:18:10.573Z,10.90
2019-03-24T07:20:40.365Z,10.97
2019-03-24T07:23:10.212Z,11.10
2019-03-24T07:25:39.993Z,10.00
2019-03-24T07:28:09.906Z,10.30
2019-03-24T07:30:39.700Z,10.47
2019-03-24T07:33:09.522Z,10.77
2019-03-24T07:35:39.345Z,18.90
2019-03-24T07:38:09.136Z,8.83
2019-03-24T07:40:39.071Z,9.90
2019-03-24T07:43:08.977Z,9.43
2019-03-24T07:45:38.827Z,9.03
2019-03-24T07:48:18.460Z,9.23
2019-03-24T07:50:40.321Z,9.33
2019-03-24T07:53:11.106Z,8.70
2019-03-24T07:55:41.118Z,7.60
2019-03-24T07:58:10.996Z,8.87
2019-03-24T08:00:40.948Z,8.23
2019-03-24T08:03:10.862Z,7.87
2019-03-24T08:05:40.731Z,7.60
2019-03-24T08:08:10.625Z,7.43
2019-03-24T08:10:40.481Z,7.40
2019-03-24T08:13:10.278Z,6.40
2019-03-24T08:15:40.056Z,6.03
2019-03-24T08:18:09.866Z,24.80
2019-03-24T08:20:40.449Z,24.00
2019-03-24T08:23:10.349Z,16.87
2019-03-24T08:25:40.471Z,7.30
2019-03-24T08:28:10.342Z,6.47
2019-03-24T08:30:40.334Z,8.60
2019-03-24T08:33:10.736Z,7.90
2019-03-24T08:35:40.703Z,7.27
2019-03-24T08:38:10.774Z,10.87
2019-03-24T08:40:40.555Z,17.20
2019-03-24T08:43:10.447Z,12.37
2019-03-24T08:45:40.438Z,27.97
2019-03-24T08:48:10.216Z,18.53
2019-03-24T08:50:40.088Z,11.67
2019-03-24T08:53:09.956Z,32.40
2019-03-24T08:55:39.846Z,16.00
2019-03-24T08:58:09.628Z,22.30
2019-03-24T09:00:39.506Z,28.03
2019-03-24T09:03:09.914Z,11.17
2019-03-24T09:05:39.755Z,18.77
2019-03-24T09:08:09.635Z,5.53
2019-03-24T09:10:39.431Z,59.37
2019-03-24T09:13:09.256Z,20.50
2019-03-24T09:15:39.162Z,13.33
2019-03-24T09:18:08.953Z,8.23
2019-03-24T09:20:41.883Z,8.80
2019-03-24T09:23:11.111Z,9.37
2019-03-24T09:25:40.950Z,6.43
2019-03-24T09:28:10.797Z,13.70
2019-03-24T09:30:41.088Z,24.73
2019-03-24T09:33:10.974Z,6.57
2019-03-24T09:35:41.000Z,12.43
2019-03-24T09:38:10.880Z,8.30
2019-03-24T09:40:40.662Z,7.13
2019-03-24T09:43:10.472Z,3.90
2019-03-24T09:45:40.328Z,3.40
2019-03-24T09:48:10.092Z,4.53
2019-03-24T09:50:39.929Z,4.10
2019-03-24T09:53:09.799Z,4.43
2019-03-24T09:55:39.599Z,4.33
2019-03-24T09:58:09.433Z,3.70
2019-03-24T10:00:39.283Z,3.50
2019-03-24T10:03:09.119Z,3.50
2019-03-24T10:05:39.007Z,3.43
2019-03-24T10:08:08.798Z,3.53
2019-03-24T10:10:38.675Z,6.07
2019-03-24T10:13:08.527Z,6.73
2019-03-24T10:15:38.403Z,3.20
2019-03-24T10:18:08.218Z,4.60
2019-03-24T10:20:38.077Z,2.70
2019-03-24T10:23:08.191Z,2.20
2019-03-24T10:25:37.972Z,2.97
2019-03-24T10:28:07.743Z,3.00
2019-03-24T10:30:37.652Z,4.90
2019-03-24T10:33:07.490Z,3.90
2019-03-24T10:35:37.355Z,2.93
2019-03-24T10:38:07.600Z,3.00
2019-03-24T10:40:37.472Z,3.70
2019-03-24T10:43:07.241Z,2.93
2019-03-24T10:45:37.197Z,2.40
2019-03-24T10:48:06.979Z,2.80
2019-03-24T10:50:36.772Z,2.30
2019-03-24T10:53:06.650Z,2.47
2019-03-24T10:55:36.571Z,2.10
2019-03-24T10:58:06.439Z,2.40
2019-03-24T11:00:43.685Z,2.60
2019-03-24T11:03:14.495Z,3.60
2019-03-24T11:05:44.274Z,5.00
2019-03-24T11:08:14.134Z,3.20
2019-03-24T11:10:43.998Z,2.80
2019-03-24T11:13:13.847Z,3.07
2019-03-24T11:15:43.771Z,2.50
2019-03-24T11:18:13.647Z,2.17
2019-03-24T11:20:43.539Z,2.07
2019-03-24T11:23:13.610Z,2.30
2019-03-24T11:25:43.449Z,2.23
2019-03-24T11:28:13.221Z,2.60
2019-03-24T11:30:43.275Z,2.40
2019-03-24T11:33:13.169Z,2.30
2019-03-24T11:35:43.066Z,2.70
2019-03-24T11:38:12.929Z,2.73
2019-03-24T11:40:42.811Z,2.77
2019-03-24T11:43:12.579Z,2.40
2019-03-24T11:45:42.392Z,2.70
2019-03-24T11:48:12.194Z,2.90
2019-03-24T11:50:42.075Z,2.80
2019-03-24T11:53:12.005Z,2.97
2019-03-24T11:55:41.882Z,3.80
2019-03-24T11:58:11.752Z,3.17
2019-03-24T12:00:41.672Z,3.03
2019-03-24T12:03:11.578Z,3.27
2019-03-24T12:05:41.386Z,3.20
2019-03-24T12:08:11.308Z,9.70
2019-03-24T12:10:41.217Z,16.37
2019-03-24T12:13:11.125Z,12.80
2019-03-24T12:15:41.414Z,3.53
2019-03-24T12:18:11.258Z,14.40
2019-03-24T12:20:41.494Z,5.67
2019-03-24T12:23:11.399Z,3.33
2019-03-24T12:25:41.209Z,4.27
2019-03-24T12:28:11.056Z,4.10
2019-03-24T12:30:40.967Z,3.30
2019-03-24T12:33:10.795Z,4.47
2019-03-24T12:35:40.646Z,4.93
2019-03-24T12:38:10.897Z,3.63
2019-03-24T12:40:40.836Z,4.30
2019-03-24T12:43:18.892Z,3.97
2019-03-24T12:45:42.165Z,5.13
2019-03-24T12:48:12.095Z,4.77
2019-03-24T12:50:41.943Z,2.87
2019-03-24T12:53:11.887Z,2.60
2019-03-24T12:56:00.578Z,4.10
2019-03-24T12:58:30.503Z,9.37
2019-03-24T13:01:00.459Z,5.57
2019-03-24T13:03:30.337Z,3.20
2019-03-24T13:06:00.562Z,3.57
2019-03-24T13:08:31.231Z,3.37
2019-03-24T13:11:01.197Z,5.53
2019-03-24T13:13:31.077Z,6.40
2019-03-24T13:16:00.947Z,4.20
2019-03-24T13:18:30.802Z,4.07
2019-03-24T13:21:00.574Z,3.53
2019-03-24T13:23:30.403Z,18.50
2019-03-24T13:26:00.274Z,15.07
2019-03-24T13:28:30.140Z,7.67
2019-03-24T13:31:00.231Z,5.03
2019-03-24T13:33:30.163Z,6.17
2019-03-24T13:36:09.917Z,16.50
2019-03-24T13:38:39.797Z,12.03
2019-03-24T13:41:09.553Z,21.67
2019-03-24T13:43:39.418Z,7.97
2019-03-24T13:46:09.288Z,12.57
2019-03-24T13:48:39.142Z,17.33
2019-03-24T13:51:09.025Z,7.87
2019-03-24T13:53:38.803Z,4.27
2019-03-24T13:56:08.579Z,4.00
2019-03-24T13:58:38.403Z,3.20
2019-03-24T14:01:09.852Z,10.33
2019-03-24T14:03:39.631Z,24.37
2019-03-24T14:06:09.534Z,5.90
2019-03-24T14:08:39.402Z,21.80
2019-03-24T14:11:09.249Z,27.30
2019-03-24T14:13:38.981Z,28.03
2019-03-24T14:16:08.763Z,33.20
2019-03-24T14:18:38.465Z,12.90
2019-03-24T14:21:08.331Z,17.93
2019-03-24T14:23:38.118Z,18.10
2019-03-24T14:26:07.917Z,10.87
2019-03-24T14:28:37.719Z,14.47
2019-03-24T14:31:07.577Z,12.07
2019-03-24T14:33:37.344Z,3.70
2019-03-24T14:36:07.409Z,10.07
2019-03-24T14:38:37.233Z,7.13
2019-03-24T14:41:07.351Z,4.40
2019-03-24T14:43:37.288Z,35.33
2019-03-24T14:46:07.141Z,19.63
2019-03-24T14:48:36.919Z,16.53
2019-03-24T14:51:07.215Z,16.13
2019-03-24T14:53:37.278Z,6.23
2019-03-24T14:56:07.091Z,10.30
2019-03-24T14:58:36.911Z,6.57
2019-03-24T15:01:06.874Z,8.57
2019-03-24T15:03:36.714Z,21.37
2019-03-24T15:06:06.667Z,16.40
2019-03-24T15:08:36.570Z,10.27
2019-03-24T15:11:07.309Z,21.80
2019-03-24T15:13:37.189Z,15.97
2019-03-24T15:16:07.012Z,11.60
2019-03-24T15:18:37.321Z,16.33
2019-03-24T15:21:07.091Z,12.83
2019-03-24T15:23:36.969Z,8.60
2019-03-24T15:26:06.736Z,7.47
2019-03-24T15:28:36.630Z,15.87
2019-03-24T15:31:06.434Z,12.80
2019-03-24T15:33:36.438Z,10.50
2019-03-24T15:36:06.231Z,12.77
2019-03-24T15:38:36.074Z,11.43
2019-03-24T15:41:05.884Z,8.20
2019-03-24T15:43:35.651Z,10.20
2019-03-24T15:46:05.445Z,12.13
2019-03-24T15:48:35.377Z,18.13
2019-03-24T15:51:16.078Z,27.43
2019-03-24T15:53:36.586Z,24.13
2019-03-24T15:56:06.527Z,27.80
2019-03-24T15:58:36.420Z,13.80
2019-03-24T16:01:06.301Z,6.87
2019-03-24T16:03:36.789Z,8.03
2019-03-24T16:06:06.924Z,11.00
2019-03-24T16:08:36.867Z,13.97
2019-03-24T16:11:06.676Z,7.77
2019-03-24T16:13:36.642Z,30.77
2019-03-24T16:16:06.607Z,24.70
2019-03-24T16:18:36.561Z,31.77
2019-03-24T16:21:06.643Z,20.30
2019-03-24T16:23:36.510Z,34.57
2019-03-24T16:26:06.342Z,39.53
2019-03-24T16:28:36.474Z,42.70
2019-03-24T16:31:06.665Z,22.73
2019-03-24T16:33:36.455Z,29.93
2019-03-24T16:36:06.266Z,23.63
2019-03-24T16:38:36.075Z,18.73
2019-03-24T16:41:06.375Z,13.40
2019-03-24T16:43:36.312Z,13.73
2019-03-24T16:46:06.253Z,16.53
2019-03-24T16:48:36.994Z,10.30
2019-03-24T16:51:06.949Z,13.77
2019-03-24T16:53:36.915Z,11.00
2019-03-24T16:56:07.592Z,11.67
2019-03-24T16:58:37.435Z,9.97
2019-03-24T17:01:07.300Z,12.07
2019-03-24T17:03:37.123Z,12.63
2019-03-24T17:06:06.996Z,11.33
2019-03-24T17:08:36.895Z,11.57
2019-03-24T17:11:06.835Z,10.30
2019-03-24T17:13:36.666Z,9.93
2019-03-24T17:16:06.527Z,9.90
2019-03-24T17:18:36.445Z,10.43
2019-03-24T17:21:06.581Z,17.60
2019-03-24T17:23:36.440Z,23.23
2019-03-24T17:26:06.294Z,44.13
2019-03-24T17:28:36.137Z,30.23
2019-03-24T17:31:05.877Z,60.23
2019-03-24T17:33:35.931Z,30.30
2019-03-24T17:36:05.966Z,30.33
2019-03-24T17:38:35.869Z,55.90
2019-03-24T17:41:05.666Z,34.40
2019-03-24T17:43:35.473Z,39.60
2019-03-24T17:46:05.284Z,47.83
2019-03-24T17:48:35.172Z,30.03
2019-03-24T17:51:05.071Z,20.47
2019-03-24T17:53:35.352Z,28.37
2019-03-24T17:56:05.242Z,46.50
2019-03-24T17:58:35.059Z,40.87
2019-03-24T18:01:04.975Z,39.53
2019-03-24T18:03:35.221Z,44.03
2019-03-24T18:06:05.097Z,53.43
2019-03-24T18:08:35.108Z,61.33
2019-03-24T18:11:06.101Z,82.67
2019-03-24T18:13:36.365Z,68.40
2019-03-24T18:16:06.354Z,57.73
2019-03-24T18:18:36.252Z,61.17
2019-03-24T18:21:08.030Z,72.10
2019-03-24T18:23:38.335Z,96.23
2019-03-24T18:26:08.160Z,82.20
2019-03-24T18:28:38.029Z,68.77
2019-03-24T18:31:07.963Z,79.03
2019-03-24T18:33:37.848Z,116.13
2019-03-24T18:36:07.728Z,113.00
2019-03-24T18:38:37.648Z,78.43
2019-03-24T18:41:07.564Z,82.83
2019-03-24T18:43:37.398Z,100.90
2019-03-24T18:46:07.651Z,99.80
2019-03-24T18:48:37.523Z,118.60
2019-03-24T18:51:07.383Z,107.37
2019-03-24T18:53:37.258Z,183.23
2019-03-24T18:56:07.223Z,357.60
2019-03-24T18:58:37.111Z,427.53
2019-03-24T19:01:07.007Z,416.47
2019-03-24T19:03:36.911Z,263.23
2019-03-24T19:06:07.225Z,159.47
2019-03-24T19:08:37.030Z,158.17
2019-03-24T19:11:06.906Z,164.83
2019-03-24T19:13:37.018Z,80.67
2019-03-24T19:16:06.903Z,59.87
2019-03-24T19:18:36.763Z,66.73
2019-03-24T19:21:06.710Z,122.80
2019-03-24T19:23:36.597Z,93.97
2019-03-24T19:26:06.512Z,84.83
2019-03-24T19:28:36.387Z,283.90
2019-03-24T19:31:06.621Z,285.73
2019-03-24T19:33:36.455Z,113.37
2019-03-24T19:36:06.340Z,83.90
2019-03-24T19:38:36.225Z,64.53
2019-03-24T19:41:06.098Z,173.17
2019-03-24T19:43:36.350Z,115.50
2019-03-24T19:46:06.204Z,90.30
2019-03-24T19:48:36.470Z,70.70
2019-03-24T19:51:07.228Z,85.70
2019-03-24T19:53:37.248Z,90.87
2019-03-24T19:56:07.480Z,91.87
2019-03-24T19:58:37.483Z,114.47
2019-03-24T20:01:07.375Z,97.83
2019-03-24T20:03:37.218Z,191.97
2019-03-24T20:06:07.845Z,146.17
2019-03-24T20:08:37.732Z,148.77
2019-03-24T20:11:07.515Z,136.00
2019-03-24T20:13:37.790Z,121.43
2019-03-24T20:16:08.060Z,117.63
2019-03-24T20:18:38.339Z,164.70
2019-03-24T20:21:08.568Z,108.57
2019-03-24T20:23:39.121Z,96.13
2019-03-24T20:26:09.652Z,97.73
2019-03-24T20:28:42.345Z,93.80
2019-03-24T20:31:13.357Z,92.33
2019-03-24T20:33:43.566Z,86.20
2019-03-24T20:36:13.822Z,72.60
2019-03-24T20:38:43.988Z,93.87
2019-03-24T20:41:14.168Z,68.03
2019-03-24T20:43:44.014Z,60.87
2019-03-24T20:46:13.881Z,53.00
2019-03-24T20:48:43.781Z,51.27
2019-03-24T20:51:13.952Z,50.60
2019-03-24T20:53:43.827Z,70.37
2019-03-24T20:56:13.627Z,52.27
2019-03-24T20:58:43.423Z,76.97
2019-03-24T21:01:13.586Z,164.27
2019-03-24T21:03:43.458Z,130.80
2019-03-24T21:06:13.248Z,113.60
2019-03-24T21:08:43.118Z,89.73
2019-03-24T21:11:12.914Z,75.03
2019-03-24T21:13:45.163Z,79.83
2019-03-24T21:16:14.486Z,107.30
2019-03-24T21:18:44.364Z,90.30
2019-03-24T21:21:14.221Z,59.60
2019-03-24T21:23:44.214Z,66.27
2019-03-24T21:26:14.028Z,55.43
2019-03-24T21:28:44.345Z,115.40
2019-03-24T21:31:14.135Z,139.47
2019-03-24T21:33:43.930Z,111.10
2019-03-24T21:36:13.773Z,95.23
2019-03-24T21:38:43.627Z,102.83
2019-03-24T21:41:13.435Z,50.50
2019-03-24T21:43:43.254Z,54.30
2019-03-24T21:46:13.065Z,55.57
2019-03-24T21:48:42.931Z,59.93
2019-03-24T21:51:13.126Z,58.50
2019-03-24T21:53:42.906Z,60.93
2019-03-24T21:56:14.200Z,58.53
2019-03-24T21:58:44.247Z,64.53
2019-03-24T22:01:14.115Z,67.07
2019-03-24T22:03:43.923Z,75.13
2019-03-24T22:06:13.762Z,69.10
2019-03-24T22:08:43.757Z,126.13
2019-03-24T22:11:13.584Z,69.30
2019-03-24T22:13:43.469Z,88.23
2019-03-24T22:16:13.318Z,126.10
2019-03-24T22:18:43.162Z,68.40
2019-03-24T22:21:12.958Z,33.80
2019-03-24T22:23:51.782Z,30.10
2019-03-24T22:26:14.644Z,34.80
2019-03-24T22:28:44.502Z,31.80
2019-03-24T22:31:14.364Z,35.00
2019-03-24T22:33:44.143Z,33.30
2019-03-24T22:36:13.959Z,28.57
2019-03-24T22:38:43.758Z,29.33
2019-03-24T22:41:13.853Z,27.37
2019-03-24T22:43:43.651Z,31.23
2019-03-24T22:46:13.513Z,76.23
2019-03-24T22:48:43.714Z,38.03
2019-03-24T22:51:13.569Z,35.73
2019-03-24T22:53:43.357Z,35.73
2019-03-24T22:56:13.499Z,63.53
2019-03-24T22:58:43.289Z,39.17
2019-03-24T23:01:14.070Z,28.97
2019-03-24T23:03:43.943Z,25.40
2019-03-24T23:06:13.812Z,24.93
2019-03-24T23:08:44.941Z,21.40
2019-03-24T23:11:14.822Z,23.00
2019-03-24T23:13:44.692Z,29.97
2019-03-24T23:16:14.453Z,39.13
2019-03-24T23:18:44.245Z,44.10
2019-03-24T23:21:14.146Z,48.70
2019-03-24T23:23:44.016Z,42.07
2019-03-24T23:26:14.336Z,23.07
2019-03-24T23:28:44.130Z,19.77
2019-03-24T23:31:13.909Z,19.63
2019-03-24T23:33:43.686Z,26.07
2019-03-24T23:36:13.412Z,35.13
2019-03-24T23:38:43.287Z,47.20
2019-03-24T23:41:13.082Z,37.20
2019-03-24T23:43:42.869Z,37.50
2019-03-24T23:46:12.936Z,38.03
2019-03-24T23:48:42.790Z,22.80
2019-03-24T23:51:12.654Z,21.33
2019-03-24T23:53:42.443Z,19.70
2019-03-24T23:56:12.220Z,28.57
2019-03-24T23:58:42.074Z,29.33
